Time;durP1;ratioP1;P1;durP2;ratioP2;P2;SDS_P1;SDS_P2;PMS_P1;PMS_P2;Temp;Humidity;BMP_temperature;BMP_pressure;BME280_temperature;BME280_humidity;BME280_pressure;Samples;Min_cycle;Max_cycle;Signal;HPM_P1;HPM_P2
2022/06/23 00:02:19;;;;;;;;;;;;;;;;;;5062299;28;19909;-84
2022/06/23 00:04:44;;;;;;;;;;;;;;;;;;5061696;28;19912;-84
2022/06/23 00:07:09;;;;;;;;;;;;;;;;;;5062315;28;19921;-84
2022/06/23 00:09:34;;;;;;;;;;;;;;;;;;5044868;28;19913;-84
2022/06/23 00:12:00;;;;;;;;;;;;;;;;;;5042999;28;19928;-84
2022/06/23 00:14:25;;;;;;;;;;;;;;;;;;5042895;28;19921;-84
2022/06/23 00:16:50;;;;;;;;;;;;;;;;;;5042841;28;19992;-83
2022/06/23 00:19:15;;;;;;;;;;;;;;;;;;5042936;28;19916;-84
2022/06/23 00:21:40;;;;;;;;;;;;;;;;;;5049343;28;19920;-84
2022/06/23 00:24:06;;;;;;;;;;;;;;;;;;5062479;28;19909;-84
2022/06/23 00:26:31;;;;;;;;;;;;;;;;;;5062643;28;19915;-84
2022/06/23 00:28:57;;;;;;;;;;;;;;;;;;5063030;28;19956;-83
2022/06/23 00:31:22;;;;;;;;;;;;;;;;;;5062817;28;19912;-84
2022/06/23 00:33:47;;;;;;;;;;;;;;;;;;5063021;28;19913;-83
2022/06/23 00:36:12;;;;;;;;;;;;;;;;;;5063536;28;19932;-83
2022/06/23 00:38:38;;;;;;;;;;;;;;;;;;5062771;28;19915;-84
2022/06/23 00:41:03;;;;;;;;;;;;;;;;;;5062576;28;20007;-84
2022/06/23 00:43:28;;;;;;;;;;;;;;;;;;5061984;28;19909;-84
2022/06/23 00:45:53;;;;;;;;;;;;;;;;;;5061420;28;19913;-84
2022/06/23 00:48:18;;;;;;;;;;;;;;;;;;5061349;28;19909;-84
2022/06/23 00:50:43;;;;;;;;;;;;;;;;;;5061537;28;20276;-83
2022/06/23 00:53:09;;;;;;;;;;;;;;;;;;5061239;28;19916;-84
2022/06/23 00:55:34;;;;;;;;;;;;;;;;;;5061411;28;19911;-83
2022/06/23 00:57:59;;;;;;;;;;;;;;;;;;5043878;28;19915;-84
2022/06/23 01:00:24;;;;;;;;;;;;;;;;;;5061735;28;19913;-83
2022/06/23 01:02:49;;;;;;;;;;;;;;;;;;5061338;28;19905;-83
2022/06/23 01:05:14;;;;;;;;;;;;;;;;;;5060120;28;19909;-83
2022/06/23 01:07:39;;;;;;;;;;;;;;;;;;5058698;28;19909;-83
2022/06/23 01:10:05;;;;;;;;;;;;;;;;;;5059145;28;19923;-83
2022/06/23 01:12:30;;;;;;;;;;;;;;;;;;5042331;28;19908;-83
2022/06/23 01:14:55;;;;;;;;;;;;;;;;;;5113332;22;19932;-84
2022/06/23 01:17:20;;;;;;;;;;;;;;;;;;5103617;28;19994;-84
2022/06/23 01:19:45;;;;;;;;;;;;;;;;;;5104414;28;19915;-84
2022/06/23 01:22:10;;;;;;;;;;;;;;;;;;5103996;28;19958;-84
2022/06/23 01:24:36;;;;;;;;;;;;;;;;;;5136876;27;19908;-84
2022/06/23 01:27:01;;;;;;;;;;;;;;;;;;5103841;28;19915;-84
2022/06/23 01:29:26;;;;;;;;;;;;;;;;;;5135624;27;19970;-84
2022/06/23 01:31:51;;;;;;;;;;;;;;;;;;5102963;28;20394;-84
2022/06/23 01:34:16;;;;;;;;;;;;;;;;;;5102754;28;19930;-84
2022/06/23 01:36:41;;;;;;;;;;;;;;;;;;5102347;28;19915;-83
2022/06/23 01:39:06;;;;;;;;;;;;;;;;;;5102762;28;19912;-84
2022/06/23 01:41:31;;;;;;;;;;;;;;;;;;5103586;28;19931;-83
2022/06/23 01:43:59;;;;;;;;;;;;;;;;;;5102973;28;19915;-83
2022/06/23 01:46:24;;;;;;;;;;;;;;;;;;5103642;28;19951;-83
2022/06/23 01:48:52;;;;;;;;;;;;;;;;;;5102903;28;19934;-83
2022/06/23 01:51:18;;;;;;;;;;;;;;;;;;5102793;28;19916;-83
2022/06/23 01:53:43;;;;;;;;;;;;;;;;;;5103712;28;20313;-83
2022/06/23 01:56:08;;;;;;;;;;;;;;;;;;5103881;28;19908;-83
2022/06/23 01:58:33;;;;;;;;;;;;;;;;;;5103536;28;20015;-83
2022/06/23 02:00:58;;;;;;;;;;;;;;;;;;5102333;28;19908;-83
2022/06/23 02:03:23;;;;;;;;;;;;;;;;;;5103427;28;19909;-83
2022/06/23 02:05:49;;;;;;;;;;;;;;;;;;5102576;28;19909;-83
2022/06/23 02:08:15;;;;;;;;;;;;;;;;;;5102555;28;19915;-83
2022/06/23 02:10:40;;;;;;;;;;;;;;;;;;5102892;28;19955;-83
2022/06/23 02:13:06;;;;;;;;;;;;;;;;;;5102391;28;19924;-83
2022/06/23 02:15:32;;;;;;;;;;;;;;;;;;5102626;28;19908;-83
2022/06/23 02:17:57;;;;;;;;;;;;;;;;;;5103923;28;19915;-83
2022/06/23 02:20:22;;;;;;;;;;;;;;;;;;5106918;28;19908;-83
2022/06/23 02:22:47;;;;;;;;;;;;;;;;;;5106334;28;20438;-83
2022/06/23 02:25:12;;;;;;;;;;;;;;;;;;5106151;28;19908;-83
2022/06/23 02:27:37;;;;;;;;;;;;;;;;;;5105953;28;19915;-83
2022/06/23 02:30:02;;;;;;;;;;;;;;;;;;5106370;28;19919;-83
2022/06/23 02:32:27;;;;;;;;;;;;;;;;;;5105865;28;19934;-83
2022/06/23 02:34:53;;;;;;;;;;;;;;;;;;5105475;28;20329;-83
2022/06/23 02:37:18;;;;;;;;;;;;;;;;;;5106056;28;19914;-83
2022/06/23 02:39:43;;;;;;;;;;;;;;;;;;5105239;28;19950;-83
2022/06/23 02:42:08;;;;;;;;;;;;;;;;;;5085205;28;19959;-83
2022/06/23 02:44:33;;;;;;;;;;;;;;;;;;5085422;28;19935;-83
2022/06/23 02:46:58;;;;;;;;;;;;;;;;;;5086044;28;19909;-83
2022/06/23 02:49:23;;;;;;;;;;;;;;;;;;5084979;28;19924;-83
2022/06/23 02:51:48;;;;;;;;;;;;;;;;;;5085122;28;19931;-83
2022/06/23 02:54:14;;;;;;;;;;;;;;;;;;5084959;28;19917;-83
2022/06/23 02:56:39;;;;;;;;;;;;;;;;;;5084294;28;20363;-83
2022/06/23 02:59:05;;;;;;;;;;;;;;;;;;5085506;28;20383;-83
2022/06/23 03:01:30;;;;;;;;;;;;;;;;;;5084729;28;19916;-83
2022/06/23 03:03:56;;;;;;;;;;;;;;;;;;5084761;28;19915;-83
2022/06/23 03:06:22;;;;;;;;;;;;;;;;;;5086309;28;19915;-83
2022/06/23 03:08:47;;;;;;;;;;;;;;;;;;5088010;28;19913;-83
2022/06/23 03:11:12;;;;;;;;;;;;;;;;;;5086172;28;19966;-84
2022/06/23 03:13:37;;;;;;;;;;;;;;;;;;5083815;28;19942;-83
2022/06/23 03:16:02;;;;;;;;;;;;;;;;;;5085928;28;19908;-84
2022/06/23 03:18:27;;;;;;;;;;;;;;;;;;5089019;28;19912;-84
2022/06/23 03:20:52;;;;;;;;;;;;;;;;;;5100546;28;20483;-84
2022/06/23 03:23:17;;;;;;;;;;;;;;;;;;5105558;28;19947;-84
2022/06/23 03:25:42;;;;;;;;;;;;;;;;;;5106093;28;20416;-84
2022/06/23 03:28:08;;;;;;;;;;;;;;;;;;5105400;28;19912;-83
2022/06/23 03:30:33;;;;;;;;;;;;;;;;;;5102558;28;19912;-84
2022/06/23 03:32:58;;;;;;;;;;;;;;;;;;5105252;28;19908;-84
2022/06/23 03:35:23;;;;;;;;;;;;;;;;;;5105240;28;19908;-84
2022/06/23 03:37:48;;;;;;;;;;;;;;;;;;5105363;28;19915;-83
2022/06/23 03:42:57;;;;;;;;;;;;;;;;;;5104570;28;19930;-83
2022/06/23 03:45:22;;;;;;;;;;;;;;;;;;5105443;28;19947;-84
2022/06/23 03:47:47;;;;;;;;;;;;;;;;;;5105203;28;19912;-83
2022/06/23 03:50:12;;;;;;;;;;;;;;;;;;5104952;28;19912;-84
2022/06/23 03:52:38;;;;;;;;;;;;;;;;;;5104098;28;19915;-84
2022/06/23 03:55:03;;;;;;;;;;;;;;;;;;5104323;28;20077;-84
2022/06/23 03:57:28;;;;;;;;;;;;;;;;;;5105131;28;20369;-83
2022/06/23 03:59:54;;;;;;;;;;;;;;;;;;5105940;28;20371;-83
2022/06/23 04:02:19;;;;;;;;;;;;;;;;;;5104856;28;19915;-83
2022/06/23 04:04:44;;;;;;;;;;;;;;;;;;5104672;28;19908;-84
2022/06/23 04:07:09;;;;;;;;;;;;;;;;;;5104865;28;20381;-83
2022/06/23 04:09:34;;;;;;;;;;;;;;;;;;5105289;28;19912;-83
2022/06/23 04:11:59;;;;;;;;;;;;;;;;;;5104472;28;19908;-83
2022/06/23 04:14:25;;;;;;;;;;;;;;;;;;5103886;28;19928;-84
2022/06/23 04:16:50;;;;;;;;;;;;;;;;;;5103325;28;19908;-83
2022/06/23 04:19:15;;;;;;;;;;;;;;;;;;5104119;28;19908;-84
2022/06/23 04:21:40;;;;;;;;;;;;;;;;;;5104735;28;19977;-83
2022/06/23 04:24:05;;;;;;;;;;;;;;;;;;5096687;28;19956;-83
2022/06/23 04:26:30;;;;;;;;;;;;;;;;;;5083344;28;19948;-83
2022/06/23 04:28:55;;;;;;;;;;;;;;;;;;5082948;28;19909;-83
2022/06/23 04:31:20;;;;;;;;;;;;;;;;;;5082839;28;19912;-83
2022/06/23 04:33:46;;;;;;;;;;;;;;;;;;5081829;28;19916;-83
2022/06/23 04:36:11;;;;;;;;;;;;;;;;;;5081786;28;19909;-83
2022/06/23 04:38:36;;;;;;;;;;;;;;;;;;5097549;28;19917;-83
2022/06/23 04:41:01;;;;;;;;;;;;;;;;;;5081635;28;19912;-83
2022/06/23 04:43:26;;;;;;;;;;;;;;;;;;5081394;28;19908;-83
2022/06/23 04:45:51;;;;;;;;;;;;;;;;;;5081213;28;20338;-83
2022/06/23 04:48:16;;;;;;;;;;;;;;;;;;5081537;28;19916;-83
2022/06/23 04:50:41;;;;;;;;;;;;;;;;;;5081576;28;19912;-83
2022/06/23 04:53:07;;;;;;;;;;;;;;;;;;5080637;28;20378;-83
2022/06/23 04:55:32;;;;;;;;;;;;;;;;;;5079900;28;19909;-83
2022/06/23 04:57:57;;;;;;;;;;;;;;;;;;5080463;28;19913;-83
2022/06/23 05:00:22;;;;;;;;;;;;;;;;;;5079911;28;19916;-83
2022/06/23 05:02:47;;;;;;;;;;;;;;;;;;5080656;28;20042;-83
2022/06/23 05:05:12;;;;;;;;;;;;;;;;;;5086881;28;19946;-84
2022/06/23 05:07:38;;;;;;;;;;;;;;;;;;5083384;28;19908;-83
2022/06/23 05:10:03;;;;;;;;;;;;;;;;;;5082934;28;19912;-84
2022/06/23 05:12:28;;;;;;;;;;;;;;;;;;5083414;28;20003;-83
2022/06/23 05:14:53;;;;;;;;;;;;;;;;;;5082857;28;19920;-84
2022/06/23 05:17:18;;;;;;;;;;;;;;;;;;5082917;28;20003;-83
2022/06/23 05:19:43;;;;;;;;;;;;;;;;;;5081868;28;19908;-83
2022/06/23 05:22:08;;;;;;;;;;;;;;;;;;5082986;28;19908;-83
2022/06/23 05:24:33;;;;;;;;;;;;;;;;;;5078331;28;19916;-83
2022/06/23 05:26:59;;;;;;;;;;;;;;;;;;5073179;28;20007;-83
2022/06/23 05:29:24;;;;;;;;;;;;;;;;;;5066075;28;19912;-83
2022/06/23 05:31:49;;;;;;;;;;;;;;;;;;5081391;28;19921;-84
2022/06/23 05:34:14;;;;;;;;;;;;;;;;;;5078618;28;20337;-83
2022/06/23 05:36:39;;;;;;;;;;;;;;;;;;5074170;28;19923;-84
2022/06/23 05:39:04;;;;;;;;;;;;;;;;;;5076823;28;19916;-83
2022/06/23 05:41:29;;;;;;;;;;;;;;;;;;5081834;28;19912;-84
2022/06/23 05:43:54;;;;;;;;;;;;;;;;;;5080940;28;19934;-83
2022/06/23 05:46:20;;;;;;;;;;;;;;;;;;5078856;28;19916;-83
2022/06/23 05:48:47;;;;;;;;;;;;;;;;;;5077078;28;19967;-84
2022/06/23 05:51:12;;;;;;;;;;;;;;;;;;5084417;28;20026;-83
2022/06/23 05:53:37;;;;;;;;;;;;;;;;;;5077816;28;19916;-83
2022/06/23 05:56:02;;;;;;;;;;;;;;;;;;5086730;28;19912;-84
2022/06/23 05:58:29;;;;;;;;;;;;;;;;;;5076141;28;19928;-83
2022/06/23 06:00:54;;;;;;;;;;;;;;;;;;5068568;28;19939;-84
2022/06/23 06:03:19;;;;;;;;;;;;;;;;;;5063968;28;20356;-83
2022/06/23 06:05:44;;;;;;;;;;;;;;;;;;5063985;28;20398;-83
2022/06/23 06:08:09;;;;;;;;;;;;;;;;;;5063536;28;19950;-83
2022/06/23 06:10:34;;;;;;;;;;;;;;;;;;5064734;28;19924;-83
2022/06/23 06:13:00;;;;;;;;;;;;;;;;;;5039118;28;19935;-83
2022/06/23 06:15:26;;;;;;;;;;;;;;;;;;5054146;28;20254;-83
2022/06/23 06:17:51;;;;;;;;;;;;;;;;;;5025737;28;19988;-82
2022/06/23 06:20:16;;;;;;;;;;;;;;;;;;4972745;28;19921;-83
2022/06/23 06:22:41;;;;;;;;;;;;;;;;;;4932889;28;21860;-83
2022/06/23 06:25:07;;;;;;;;;;;;;;;;;;4929138;28;19921;-84
2022/06/23 06:27:33;;;;;;;;;;;;;;;;;;4911867;28;19921;-83
2022/06/23 06:29:59;;;;;;;;;;;;;;;;;;4899723;28;20002;-83
2022/06/23 06:32:25;;;;;;;;;;;;;;;;;;4891179;28;25605;-84
2022/06/23 06:34:50;;;;;;;;;;;;;;;;;;4904840;28;19920;-83
2022/06/23 06:37:15;;;;;;;;;;;;;;;;;;4917676;28;25388;-84
2022/06/23 06:39:40;;;;;;;;;;;;;;;;;;4916136;28;19928;-82
2022/06/23 06:42:05;;;;;;;;;;;;;;;;;;4955988;28;20945;-83
2022/06/23 06:44:31;;;;;;;;;;;;;;;;;;5041544;28;19944;-83
2022/06/23 06:46:56;;;;;;;;;;;;;;;;;;5030478;28;19958;-84
2022/06/23 06:49:21;;;;;;;;;;;;;;;;;;5033591;28;19920;-85
2022/06/23 06:51:46;;;;;;;;;;;;;;;;;;5029589;28;20865;-85
2022/06/23 06:54:11;;;;;;;;;;;;;;;;;;4982507;28;22189;-83
2022/06/23 06:56:36;;;;;;;;;;;;;;;;;;4920707;28;21751;-83
2022/06/23 06:59:01;;;;;;;;;;;;;;;;;;4906522;28;22377;-83
2022/06/23 07:01:26;;;;;;;;;;;;;;;;;;4905829;28;19924;-84
2022/06/23 07:03:52;;;;;;;;;;;;;;;;;;4896517;28;19921;-83
2022/06/23 07:06:17;;;;;;;;;;;;;;;;;;4909640;28;20033;-84
2022/06/23 07:08:42;;;;;;;;;;;;;;;;;;4903361;28;21399;-83
2022/06/23 07:11:07;;;;;;;;;;;;;;;;;;4942447;28;19979;-83
2022/06/23 07:13:32;;;;;;;;;;;;;;;;;;4959941;28;19940;-84
2022/06/23 07:15:58;;;;;;;;;;;;;;;;;;4957999;28;19920;-84
2022/06/23 07:18:23;;;;;;;;;;;;;;;;;;4949216;28;19963;-83
2022/06/23 07:20:48;;;;;;;;;;;;;;;;;;4932768;28;20022;-84
2022/06/23 07:23:16;;;;;;;;;;;;;;;;;;4857943;28;19971;-84
2022/06/23 07:25:41;;;;;;;;;;;;;;;;;;4765060;28;22858;-84
2022/06/23 07:28:06;;;;;;;;;;;;;;;;;;4798250;28;42401;-83
2022/06/23 07:30:31;;;;;;;;;;;;;;;;;;4870595;28;19924;-84
2022/06/23 07:32:57;;;;;;;;;;;;;;;;;;4869372;28;27919;-83
2022/06/23 07:35:22;;;;;;;;;;;;;;;;;;4881979;28;21324;-84
2022/06/23 07:37:47;;;;;;;;;;;;;;;;;;4881253;28;22058;-83
2022/06/23 07:40:12;;;;;;;;;;;;;;;;;;4881828;28;19924;-83
2022/06/23 07:42:37;;;;;;;;;;;;;;;;;;4869525;28;19920;-83
2022/06/23 07:45:02;;;;;;;;;;;;;;;;;;4867962;28;24223;-83
2022/06/23 07:47:27;;;;;;;;;;;;;;;;;;4869148;28;19921;-83
2022/06/23 07:49:53;;;;;;;;;;;;;;;;;;4878229;28;25021;-85
2022/06/23 07:52:18;;;;;;;;;;;;;;;;;;4883118;28;19927;-84
2022/06/23 07:54:43;;;;;;;;;;;;;;;;;;4875695;28;22086;-84
2022/06/23 07:57:08;;;;;;;;;;;;;;;;;;4883529;28;19920;-83
2022/06/23 07:59:33;;;;;;;;;;;;;;;;;;4900321;28;19920;-83
2022/06/23 08:01:58;;;;;;;;;;;;;;;;;;4890126;28;20001;-83
2022/06/23 08:04:23;;;;;;;;;;;;;;;;;;4886068;28;20526;-83
2022/06/23 08:06:48;;;;;;;;;;;;;;;;;;4890468;28;25589;-83
2022/06/23 08:09:14;;;;;;;;;;;;;;;;;;4895424;28;25142;-84
2022/06/23 08:14:23;;;;;;;;;;;;;;;;;;4885773;28;20047;-84
2022/06/23 08:16:51;;;;;;;;;;;;;;;;;;4897871;28;21075;-83
2022/06/23 08:19:20;;;;;;;;;;;;;;;;;;4893094;28;19930;-84
2022/06/23 08:21:45;;;;;;;;;;;;;;;;;;4897864;28;25029;-83
2022/06/23 08:24:10;;;;;;;;;;;;;;;;;;4907250;28;21959;-84
2022/06/23 08:26:35;;;;;;;;;;;;;;;;;;4912011;28;19921;-83
2022/06/23 08:29:00;;;;;;;;;;;;;;;;;;4924516;28;20054;-83
2022/06/23 08:31:25;;;;;;;;;;;;;;;;;;4913446;28;25182;-84
2022/06/23 08:33:51;;;;;;;;;;;;;;;;;;4890985;28;37138;-82
2022/06/23 08:36:16;;;;;;;;;;;;;;;;;;4896805;28;21187;-83
2022/06/23 08:38:41;;;;;;;;;;;;;;;;;;4899663;28;24439;-84
2022/06/23 08:41:06;;;;;;;;;;;;;;;;;;4900613;28;19920;-82
2022/06/23 08:43:31;;;;;;;;;;;;;;;;;;4903116;28;20063;-83
2022/06/23 08:45:57;;;;;;;;;;;;;;;;;;4897892;28;19920;-83
2022/06/23 08:48:22;;;;;;;;;;;;;;;;;;4904777;28;19998;-83
2022/06/23 08:50:47;;;;;;;;;;;;;;;;;;4903410;28;22310;-83
2022/06/23 08:53:12;;;;;;;;;;;;;;;;;;4906875;28;23286;-83
2022/06/23 08:55:37;;;;;;;;;;;;;;;;;;4904505;28;20092;-82
2022/06/23 08:58:02;;;;;;;;;;;;;;;;;;4911178;28;19921;-83
2022/06/23 09:00:27;;;;;;;;;;;;;;;;;;4901893;28;20024;-84
2022/06/23 09:02:53;;;;;;;;;;;;;;;;;;4901538;28;21324;-83
2022/06/23 09:05:18;;;;;;;;;;;;;;;;;;4902096;28;19924;-84
2022/06/23 09:07:43;;;;;;;;;;;;;;;;;;4902814;28;29542;-84
2022/06/23 09:10:08;;;;;;;;;;;;;;;;;;4907068;28;20328;-84
2022/06/23 09:12:33;;;;;;;;;;;;;;;;;;4902895;28;20078;-84
2022/06/23 09:14:58;;;;;;;;;;;;;;;;;;4896693;28;25537;-84
2022/06/23 09:17:25;;;;;;;;;;;;;;;;;;4892752;28;21610;-83
2022/06/23 09:19:50;;;;;;;;;;;;;;;;;;4910087;28;20579;-84
2022/06/23 09:22:15;;;;;;;;;;;;;;;;;;4914487;28;19921;-83
2022/06/23 09:24:40;;;;;;;;;;;;;;;;;;4885846;28;21115;-84
2022/06/23 09:27:05;;;;;;;;;;;;;;;;;;4897535;28;24476;-84
2022/06/23 09:29:30;;;;;;;;;;;;;;;;;;4913367;28;20651;-84
2022/06/23 09:31:56;;;;;;;;;;;;;;;;;;4929167;28;20000;-85
2022/06/23 09:34:21;;;;;;;;;;;;;;;;;;4927292;28;20086;-84
2022/06/23 09:36:47;;;;;;;;;;;;;;;;;;4909882;28;19920;-86
2022/06/23 09:39:13;;;;;;;;;;;;;;;;;;4921155;28;28701;-85
2022/06/23 09:41:38;;;;;;;;;;;;;;;;;;4936130;28;21567;-83
2022/06/23 09:44:03;;;;;;;;;;;;;;;;;;4959681;28;22104;-83
2022/06/23 09:46:28;;;;;;;;;;;;;;;;;;4947764;28;21091;-85
2022/06/23 09:48:53;;;;;;;;;;;;;;;;;;4934410;28;21131;-86
2022/06/23 09:51:18;;;;;;;;;;;;;;;;;;4859341;28;27415;-84
2022/06/23 09:53:44;;;;;;;;;;;;;;;;;;4793137;28;30881;-85
2022/06/23 09:56:09;;;;;;;;;;;;;;;;;;4785885;28;30385;-84
2022/06/23 09:58:34;;;;;;;;;;;;;;;;;;4777791;28;40274;-83
2022/06/23 10:00:59;;;;;;;;;;;;;;;;;;4781750;28;43349;-85
2022/06/23 10:03:24;;;;;;;;;;;;;;;;;;4788919;28;29827;-85
2022/06/23 10:05:49;;;;;;;;;;;;;;;;;;4782850;28;34296;-86
2022/06/23 10:08:14;;;;;;;;;;;;;;;;;;4792145;28;35509;-85
2022/06/23 10:10:40;;;;;;;;;;;;;;;;;;4746578;28;33110;-85
2022/06/23 10:13:05;;;;;;;;;;;;;;;;;;4752243;28;26924;-84
2022/06/23 10:15:30;;;;;;;;;;;;;;;;;;4858257;28;22781;-85
2022/06/23 10:17:57;;;;;;;;;;;;;;;;;;4736517;28;20612;-84
2022/06/23 10:20:23;;;;;;;;;;;;;;;;;;4799933;28;21268;-85
2022/06/23 10:22:48;;;;;;;;;;;;;;;;;;4833385;28;22441;-85
2022/06/23 10:25:13;;;;;;;;;;;;;;;;;;4854837;28;25737;-86
2022/06/23 10:27:46;;;;;;;;;;;;;;;;;;4845861;28;20081;-85
2022/06/23 10:30:11;;;;;;;;;;;;;;;;;;4813281;28;22675;-86
2022/06/23 10:32:36;;;;;;;;;;;;;;;;;;4811668;28;23082;-85
2022/06/23 10:35:02;;;;;;;;;;;;;;;;;;4791599;28;32451;-85
2022/06/23 10:37:27;;;;;;;;;;;;;;;;;;4761744;28;19935;-85
2022/06/23 10:39:52;;;;;;;;;;;;;;;;;;4872514;28;22558;-85
2022/06/23 10:42:17;;;;;;;;;;;;;;;;;;4766600;28;29964;-86
2022/06/23 10:44:42;;;;;;;;;;;;;;;;;;4800294;28;29926;-86
2022/06/23 10:47:07;;;;;;;;;;;;;;;;;;4833148;28;22447;-84
2022/06/23 10:49:33;;;;;;;;;;;;;;;;;;4813490;28;20501;-84
2022/06/23 10:51:58;;;;;;;;;;;;;;;;;;4809147;28;24922;-86
2022/06/23 10:54:23;;;;;;;;;;;;;;;;;;4843853;28;19983;-83
2022/06/23 10:56:48;;;;;;;;;;;;;;;;;;4930126;28;22875;-85
2022/06/23 10:59:13;;;;;;;;;;;;;;;;;;4932761;28;20513;-83
2022/06/23 11:01:38;;;;;;;;;;;;;;;;;;4941191;28;19927;-85
2022/06/23 11:04:04;;;;;;;;;;;;;;;;;;4902074;28;22230;-83
2022/06/23 11:06:29;;;;;;;;;;;;;;;;;;4936790;28;20315;-85
2022/06/23 11:08:54;;;;;;;;;;;;;;;;;;4925307;28;21581;-85
2022/06/23 11:11:20;;;;;;;;;;;;;;;;;;4928834;28;19979;-85
2022/06/23 11:13:47;;;;;;;;;;;;;;;;;;4915309;28;19929;-85
2022/06/23 11:16:12;;;;;;;;;;;;;;;;;;4953852;28;20092;-86
2022/06/23 11:18:38;;;;;;;;;;;;;;;;;;4947601;28;20695;-86
2022/06/23 11:21:03;;;;;;;;;;;;;;;;;;4940494;28;22081;-85
2022/06/23 11:23:28;;;;;;;;;;;;;;;;;;4935907;28;21677;-85
2022/06/23 11:25:53;;;;;;;;;;;;;;;;;;4966543;28;20050;-84
2022/06/23 11:28:19;;;;;;;;;;;;;;;;;;4947585;28;19944;-86
2022/06/23 11:30:44;;;;;;;;;;;;;;;;;;4921338;28;19931;-85
2022/06/23 11:33:09;;;;;;;;;;;;;;;;;;4910032;28;20109;-85
2022/06/23 11:35:34;;;;;;;;;;;;;;;;;;4908867;28;20590;-85
2022/06/23 11:38:00;;;;;;;;;;;;;;;;;;4909795;28;19920;-85
2022/06/23 11:40:26;;;;;;;;;;;;;;;;;;4905789;28;19924;-86
2022/06/23 11:42:51;;;;;;;;;;;;;;;;;;4921086;28;22172;-83
2022/06/23 11:45:16;;;;;;;;;;;;;;;;;;4953284;28;19920;-84
2022/06/23 11:47:41;;;;;;;;;;;;;;;;;;5000657;28;20646;-85
2022/06/23 11:50:06;;;;;;;;;;;;;;;;;;4915672;28;20144;-85
2022/06/23 11:52:31;;;;;;;;;;;;;;;;;;4908140;28;19920;-84
2022/06/23 11:54:56;;;;;;;;;;;;;;;;;;4981744;28;20622;-85
2022/06/23 11:57:21;;;;;;;;;;;;;;;;;;4910069;28;21645;-85
2022/06/23 11:59:47;;;;;;;;;;;;;;;;;;4902968;28;20044;-86
2022/06/23 12:02:12;;;;;;;;;;;;;;;;;;4892093;28;19942;-85
2022/06/23 12:04:38;;;;;;;;;;;;;;;;;;4885279;28;20214;-85
2022/06/23 12:07:03;;;;;;;;;;;;;;;;;;4886514;28;19920;-84
2022/06/23 12:09:28;;;;;;;;;;;;;;;;;;4888013;28;19920;-84
2022/06/23 12:11:53;;;;;;;;;;;;;;;;;;4951181;28;20085;-85
2022/06/23 12:14:19;;;;;;;;;;;;;;;;;;4968020;28;20386;-84
2022/06/23 12:16:44;;;;;;;;;;;;;;;;;;4971638;28;19924;-84
2022/06/23 12:19:09;;;;;;;;;;;;;;;;;;4965956;28;21587;-84
2022/06/23 12:21:34;;;;;;;;;;;;;;;;;;4922380;28;19928;-85
2022/06/23 12:23:59;;;;;;;;;;;;;;;;;;4913282;28;20236;-84
2022/06/23 12:26:24;;;;;;;;;;;;;;;;;;4915477;28;20039;-85
2022/06/23 12:28:50;;;;;;;;;;;;;;;;;;4934974;28;21951;-85
2022/06/23 12:31:15;;;;;;;;;;;;;;;;;;4936075;28;27720;-84
2022/06/23 12:33:40;;;;;;;;;;;;;;;;;;4925838;28;19920;-85
2022/06/23 12:36:05;;;;;;;;;;;;;;;;;;4943753;28;19928;-86
2022/06/23 12:38:30;;;;;;;;;;;;;;;;;;4988965;28;20005;-85
2022/06/23 12:40:55;;;;;;;;;;;;;;;;;;4974139;28;20023;-85
2022/06/23 12:43:20;;;;;;;;;;;;;;;;;;4974315;28;21361;-85
2022/06/23 12:45:47;;;;;;;;;;;;;;;;;;4966091;28;20725;-85
2022/06/23 12:48:13;;;;;;;;;;;;;;;;;;4984331;28;20123;-85
2022/06/23 12:50:39;;;;;;;;;;;;;;;;;;4993793;28;19925;-84
2022/06/23 12:53:04;;;;;;;;;;;;;;;;;;4969251;28;19992;-85
2022/06/23 12:55:29;;;;;;;;;;;;;;;;;;4982306;28;20144;-85
2022/06/23 12:57:54;;;;;;;;;;;;;;;;;;4957569;28;19975;-85
2022/06/23 13:00:21;;;;;;;;;;;;;;;;;;4916158;28;19921;-85
2022/06/23 13:02:46;;;;;;;;;;;;;;;;;;4920201;28;19920;-84
2022/06/23 13:05:12;;;;;;;;;;;;;;;;;;4949193;28;19925;-85
2022/06/23 13:07:37;;;;;;;;;;;;;;;;;;4963617;28;20356;-85
2022/06/23 13:10:02;;;;;;;;;;;;;;;;;;4930299;28;21187;-85
2022/06/23 13:12:27;;;;;;;;;;;;;;;;;;4898126;28;22455;-84
2022/06/23 13:14:53;;;;;;;;;;;;;;;;;;4931022;22;20131;-86
2022/06/23 13:17:22;;;;;;;;;;;;;;;;;;4924934;28;23600;-86
2022/06/23 13:19:47;;;;;;;;;;;;;;;;;;4919614;28;19927;-85
2022/06/23 13:22:12;;;;;;;;;;;;;;;;;;4912131;28;20199;-84
2022/06/23 13:24:38;;;;;;;;;;;;;;;;;;4918988;28;19924;-83
2022/06/23 13:27:04;;;;;;;;;;;;;;;;;;4928307;28;20186;-85
2022/06/23 13:29:29;;;;;;;;;;;;;;;;;;4960205;28;21619;-85
2022/06/23 13:31:56;;;;;;;;;;;;;;;;;;4962623;28;21552;-85
2022/06/23 13:34:27;;;;;;;;;;;;;;;;;;4941705;28;20117;-85
2022/06/23 13:36:52;;;;;;;;;;;;;;;;;;4963881;28;20192;-85
2022/06/23 13:39:17;;;;;;;;;;;;;;;;;;4967337;28;19928;-85
2022/06/23 13:41:44;;;;;;;;;;;;;;;;;;4981886;28;19920;-85
2022/06/23 13:44:09;;;;;;;;;;;;;;;;;;4976439;28;19920;-85
2022/06/23 13:46:34;;;;;;;;;;;;;;;;;;4965839;28;19927;-85
2022/06/23 13:48:59;;;;;;;;;;;;;;;;;;4984191;28;23385;-85
2022/06/23 13:51:24;;;;;;;;;;;;;;;;;;4976334;28;20024;-85
2022/06/23 13:53:49;;;;;;;;;;;;;;;;;;4977953;28;19967;-85
2022/06/23 13:56:16;;;;;;;;;;;;;;;;;;4956488;28;19920;-85
2022/06/23 13:58:41;;;;;;;;;;;;;;;;;;4971693;28;19920;-84
2022/06/23 14:01:06;;;;;;;;;;;;;;;;;;4920832;28;20047;-85
2022/06/23 14:03:31;;;;;;;;;;;;;;;;;;4920240;28;20160;-86
2022/06/23 14:05:56;;;;;;;;;;;;;;;;;;4980932;28;20002;-85
2022/06/23 14:08:21;;;;;;;;;;;;;;;;;;4990126;28;19925;-85
2022/06/23 14:10:46;;;;;;;;;;;;;;;;;;5031517;28;20338;-85
2022/06/23 14:13:12;;;;;;;;;;;;;;;;;;5043501;28;20407;-86
2022/06/23 14:15:37;;;;;;;;;;;;;;;;;;5056194;28;20473;-85
2022/06/23 14:18:02;;;;;;;;;;;;;;;;;;5056610;28;20311;-85
2022/06/23 14:20:27;;;;;;;;;;;;;;;;;;5060381;28;19928;-85
2022/06/23 14:22:52;;;;;;;;;;;;;;;;;;5055323;28;19916;-86
2022/06/23 14:25:17;;;;;;;;;;;;;;;;;;5040374;28;20010;-85
2022/06/23 14:27:42;;;;;;;;;;;;;;;;;;5062666;28;19928;-86
2022/06/23 14:30:07;;;;;;;;;;;;;;;;;;5056588;28;19920;-86
2022/06/23 14:32:33;;;;;;;;;;;;;;;;;;5051807;28;20328;-86
2022/06/23 14:34:58;;;;;;;;;;;;;;;;;;5037603;28;20021;-86
2022/06/23 14:37:23;;;;;;;;;;;;;;;;;;5050167;28;19966;-86
2022/06/23 14:39:48;;;;;;;;;;;;;;;;;;5045592;28;19987;-85
2022/06/23 14:42:13;;;;;;;;;;;;;;;;;;5047904;28;20011;-86
2022/06/23 14:44:38;;;;;;;;;;;;;;;;;;5049748;28;19928;-85
2022/06/23 14:47:03;;;;;;;;;;;;;;;;;;5040322;28;19964;-85
2022/06/23 14:49:29;;;;;;;;;;;;;;;;;;5047788;28;20342;-85
2022/06/23 14:51:54;;;;;;;;;;;;;;;;;;5063104;28;19925;-86
2022/06/23 14:54:19;;;;;;;;;;;;;;;;;;5065963;28;19920;-85
2022/06/23 14:56:44;;;;;;;;;;;;;;;;;;5058342;28;19927;-85
2022/06/23 14:59:09;;;;;;;;;;;;;;;;;;5066490;28;19917;-85
2022/06/23 15:01:34;;;;;;;;;;;;;;;;;;5073172;28;19958;-85
2022/06/23 15:03:59;;;;;;;;;;;;;;;;;;5079729;28;19913;-85
2022/06/23 15:06:24;;;;;;;;;;;;;;;;;;5078841;28;19917;-86
2022/06/23 15:08:50;;;;;;;;;;;;;;;;;;5080166;28;19920;-85
2022/06/23 15:11:15;;;;;;;;;;;;;;;;;;5077579;28;19920;-85
2022/06/23 15:13:40;;;;;;;;;;;;;;;;;;5077508;28;19912;-85
2022/06/23 15:16:05;;;;;;;;;;;;;;;;;;5074848;28;19913;-85
2022/06/23 15:18:30;;;;;;;;;;;;;;;;;;5081350;28;19920;-85
2022/06/23 15:20:55;;;;;;;;;;;;;;;;;;5078288;28;19920;-85
2022/06/23 15:23:21;;;;;;;;;;;;;;;;;;5075652;28;19923;-85
2022/06/23 15:25:46;;;;;;;;;;;;;;;;;;5078326;28;19917;-85
2022/06/23 15:28:11;;;;;;;;;;;;;;;;;;5078720;28;20016;-85
2022/06/23 15:30:37;;;;;;;;;;;;;;;;;;5079224;28;19978;-85
2022/06/23 15:33:02;;;;;;;;;;;;;;;;;;5078890;28;19940;-85
2022/06/23 15:35:27;;;;;;;;;;;;;;;;;;5081410;28;20430;-85
2022/06/23 15:37:52;;;;;;;;;;;;;;;;;;5079279;28;19912;-85
2022/06/23 15:40:17;;;;;;;;;;;;;;;;;;5079291;28;19919;-85
2022/06/23 15:42:45;;;;;;;;;;;;;;;;;;5078535;28;20353;-85
2022/06/23 15:45:10;;;;;;;;;;;;;;;;;;5078838;28;19919;-85
2022/06/23 15:47:35;;;;;;;;;;;;;;;;;;5080821;28;19916;-85
2022/06/23 15:50:00;;;;;;;;;;;;;;;;;;5079162;28;19912;-85
2022/06/23 15:52:25;;;;;;;;;;;;;;;;;;5079364;28;19966;-85
2022/06/23 15:54:53;;;;;;;;;;;;;;;;;;5080324;28;19916;-85
2022/06/23 15:57:18;;;;;;;;;;;;;;;;;;5080730;28;19916;-85
2022/06/23 15:59:43;;;;;;;;;;;;;;;;;;5079455;28;20305;-85
2022/06/23 16:02:08;;;;;;;;;;;;;;;;;;5080523;28;20364;-85
2022/06/23 16:04:35;;;;;;;;;;;;;;;;;;5080540;28;19911;-85
2022/06/23 16:07:00;;;;;;;;;;;;;;;;;;5078516;28;19962;-85
2022/06/23 16:09:25;;;;;;;;;;;;;;;;;;5080308;28;19908;-85
2022/06/23 16:11:50;;;;;;;;;;;;;;;;;;5080099;28;19924;-86
2022/06/23 16:14:15;;;;;;;;;;;;;;;;;;5086240;28;19924;-85
2022/06/23 16:16:41;;;;;;;;;;;;;;;;;;5080350;28;19925;-85
2022/06/23 16:19:06;;;;;;;;;;;;;;;;;;5078909;28;19920;-85
2022/06/23 16:21:31;;;;;;;;;;;;;;;;;;5080106;28;20291;-85
2022/06/23 16:23:56;;;;;;;;;;;;;;;;;;5079916;28;19936;-85
2022/06/23 16:26:21;;;;;;;;;;;;;;;;;;5079965;28;19912;-86
2022/06/23 16:28:47;;;;;;;;;;;;;;;;;;5079903;28;19915;-85
2022/06/23 16:31:12;;;;;;;;;;;;;;;;;;5079574;28;20003;-85
2022/06/23 16:33:37;;;;;;;;;;;;;;;;;;5079573;28;19916;-85
2022/06/23 16:36:02;;;;;;;;;;;;;;;;;;5078195;28;19908;-85
2022/06/23 16:38:27;;;;;;;;;;;;;;;;;;5077717;28;19920;-85